Ana Sayfa
METAR-TAF:

METAR-TAF

Havaalanları :

Kuching Uluslararası Havalimanı

Kuching, Malezya

Enlem: 01-29N, Boylam: 110-20E, yükseklik: 27 m

Güncel hava durumu gözlemi

Rapor saat 21:30 UTC de 18 dakika önce yapıldı.
Rüzgar değişken yönden 2 kt
Sıcaklık 25°C
Nem 83%
Basınç 1007 hPa
Görüş mesafesi 10 km veya daha fazla
2000 ft yükseklikte az bulutlu
30000 ft yükseklikte parçalı çok bulutlu

METAR: WBGG 172130Z VRB02KT 9999 FEW020 BKN300 25/22 Q1007 NOSIG

Saat: 05:48 (21:48 UTC)

Tahmin

Rapor saat 17:00 UTC de 4 saat ve 48 dakika önce yapıldı.
Ayın 17'si saat 18 UTC'den ayın 18'si saat 18 UTC'ye kadar geçerli Tahmin
Rüzgar değişken yönden 2 kt
Görüş mesafesi 10 km veya daha fazla
2000 ft yükseklikte az bulutlu
Dönüşüyor
ayın 18'si saat 02 UTC'den ayın 18'si saat 04 UTC'ye kadar
Rüzgar güneydan 7 kt

TAF: WBGG 171700Z 1718/1818 VRB02KT 9999 FEW020 BECMG 1802/1804 17007KT

4.000'den fazla havaalanı için hava durumu gözlemleri ve tahminleri (METAR ve TAF raporları).

Kullanılabilir istasyonlar harita üzerinde sarı ve kırmızı noktalarla gösterilir.

İstasyonun adını görmek için fareyi noktanın üzerinde gezdirin.

Sonrasında hava gözlem ve tahminlerini görmek için tıklayın.

Haritayı değiştirmek için: yaklaştırmak için siyah artı işaretli yeşil düğmeye ve uzaklaştırmak için de eksi işaretli düğmeye hızla tıklayın; bitişik haritalar için yeşil okları kullanın.


METAR-TAF: